createdAt,value
2023-05-23T00:02:52.559Z,10.54
2023-05-23T00:06:54.823Z,10.51
2023-05-23T00:10:56.998Z,10.50
2023-05-23T00:14:59.340Z,10.40
2023-05-23T00:19:01.274Z,10.31
2023-05-23T00:23:03.941Z,10.29
2023-05-23T00:27:05.884Z,10.31
2023-05-23T00:31:08.027Z,10.30
2023-05-23T00:35:10.144Z,10.26
2023-05-23T00:39:18.606Z,10.22
2023-05-23T00:43:22.183Z,10.11
2023-05-23T00:47:24.198Z,9.99
2023-05-23T00:51:26.902Z,9.94
2023-05-23T00:55:29.948Z,9.91
2023-05-23T00:59:33.032Z,9.84
2023-05-23T01:03:35.817Z,9.70
2023-05-23T01:07:37.846Z,9.67
2023-05-23T01:11:55.821Z,9.70
2023-05-23T01:15:58.669Z,9.72
2023-05-23T01:20:09.789Z,9.73
2023-05-23T01:24:35.751Z,9.74
2023-05-23T01:28:43.084Z,9.67
2023-05-23T01:32:47.885Z,9.52
2023-05-23T01:36:53.973Z,9.39
2023-05-23T01:40:56.348Z,9.40
2023-05-23T01:44:59.107Z,9.51
2023-05-23T01:49:03.721Z,9.55
2023-05-23T01:53:08.001Z,9.61
2023-05-23T01:57:11.541Z,9.63
2023-05-23T02:01:14.100Z,9.60
2023-05-23T02:05:16.150Z,9.51
2023-05-23T02:09:18.237Z,9.28
2023-05-23T02:13:20.378Z,9.20
2023-05-23T02:17:23.797Z,9.19
2023-05-23T02:21:25.844Z,9.16
2023-05-23T02:25:27.808Z,9.11
2023-05-23T02:29:31.946Z,9.04
2023-05-23T02:33:33.986Z,8.96
2023-05-23T02:37:35.908Z,8.88
2023-05-23T02:41:39.573Z,8.88
2023-05-23T02:45:41.841Z,8.90
2023-05-23T02:49:44.022Z,8.89
2023-05-23T02:53:47.076Z,8.87
2023-05-23T02:57:49.175Z,8.89
2023-05-23T03:01:51.267Z,8.92
2023-05-23T03:05:53.448Z,8.92
2023-05-23T03:09:56.192Z,8.91
2023-05-23T03:13:58.250Z,8.95
2023-05-23T03:18:00.390Z,8.97
2023-05-23T03:22:02.507Z,9.02
2023-05-23T03:26:06.204Z,9.20
2023-05-23T03:30:10.589Z,9.46
2023-05-23T03:34:12.765Z,9.77
2023-05-23T03:38:15.040Z,9.95
2023-05-23T03:42:17.885Z,10.16
2023-05-23T03:46:20.411Z,10.50
2023-05-23T03:50:23.136Z,10.77
2023-05-23T03:54:25.184Z,11.15
2023-05-23T03:58:27.473Z,11.56
2023-05-23T04:02:33.198Z,11.96
2023-05-23T04:06:36.342Z,12.29
2023-05-23T04:10:39.152Z,12.62
2023-05-23T04:14:41.699Z,12.99
2023-05-23T04:18:46.729Z,13.42
2023-05-23T04:22:49.058Z,13.90
2023-05-23T04:26:51.456Z,14.41
2023-05-23T04:30:53.893Z,14.88
2023-05-23T04:35:01.734Z,15.40
2023-05-23T04:39:05.697Z,15.91
2023-05-23T04:43:13.992Z,16.46
2023-05-23T04:47:28.899Z,17.03
2023-05-23T04:51:39.017Z,17.46
2023-05-23T04:55:53.422Z,17.86
2023-05-23T04:59:56.929Z,18.20
2023-05-23T05:03:59.258Z,18.71
2023-05-23T05:08:01.593Z,19.19
2023-05-23T05:12:03.640Z,19.55
2023-05-23T05:16:06.268Z,19.78
2023-05-23T05:20:10.463Z,19.84
2023-05-23T05:24:13.444Z,19.79
2023-05-23T05:28:15.410Z,19.72
2023-05-23T05:32:24.978Z,19.65
2023-05-23T05:36:36.057Z,19.50
2023-05-23T05:40:38.227Z,19.41
2023-05-23T05:44:40.824Z,19.43
2023-05-23T05:48:43.485Z,19.54
2023-05-23T05:52:47.578Z,19.73
2023-05-23T05:56:49.717Z,19.93
2023-05-23T06:00:53.313Z,20.06
2023-05-23T06:04:56.423Z,20.15
2023-05-23T06:08:59.795Z,20.42
2023-05-23T06:13:01.857Z,20.69
2023-05-23T06:17:05.094Z,20.85
2023-05-23T06:21:08.709Z,20.99
2023-05-23T06:25:11.654Z,21.18
2023-05-23T06:29:13.767Z,21.25
2023-05-23T06:33:16.243Z,21.28
2023-05-23T06:37:18.340Z,21.26
2023-05-23T06:41:20.658Z,21.27
2023-05-23T06:45:23.112Z,21.25
2023-05-23T06:49:25.460Z,21.26
2023-05-23T06:53:27.845Z,21.31
2023-05-23T06:57:30.573Z,21.37
2023-05-23T07:01:33.376Z,21.43
2023-05-23T07:05:37.407Z,21.54
2023-05-23T07:09:43.834Z,21.69
2023-05-23T07:13:50.439Z,21.93
2023-05-23T07:17:57.735Z,22.14
2023-05-23T07:22:01.521Z,22.30
2023-05-23T07:26:04.552Z,22.46
2023-05-23T07:30:16.141Z,22.55
2023-05-23T07:34:18.242Z,22.77
2023-05-23T07:38:27.540Z,22.97
2023-05-23T07:42:29.842Z,23.13
2023-05-23T07:46:32.057Z,23.46
2023-05-23T07:50:34.419Z,23.72
2023-05-23T07:54:37.969Z,23.92
2023-05-23T07:58:40.967Z,24.16
2023-05-23T08:02:43.084Z,24.37
2023-05-23T08:07:04.245Z,24.57
2023-05-23T08:11:36.515Z,24.69
2023-05-23T08:15:38.794Z,24.87
2023-05-23T08:19:48.551Z,25.07
2023-05-23T08:23:50.730Z,25.09
2023-05-23T08:27:53.075Z,25.09
2023-05-23T08:32:14.837Z,25.09
2023-05-23T08:36:17.096Z,25.11
2023-05-23T08:40:22.311Z,25.20
2023-05-23T08:44:38.020Z,25.19
2023-05-23T08:48:42.484Z,25.27
2023-05-23T08:52:57.445Z,25.49
2023-05-23T08:57:13.416Z,25.60
2023-05-23T09:01:20.331Z,25.61
2023-05-23T09:05:26.280Z,25.68
2023-05-23T09:09:32.382Z,25.82
2023-05-23T09:13:37.081Z,26.02
2023-05-23T09:17:41.704Z,26.10
2023-05-23T09:21:45.406Z,26.09
2023-05-23T09:25:55.008Z,26.07
2023-05-23T09:30:07.904Z,26.08
2023-05-23T09:34:10.563Z,26.12
2023-05-23T09:38:18.556Z,25.99
2023-05-23T09:42:25.071Z,25.93
2023-05-23T09:46:30.412Z,25.93
2023-05-23T09:50:33.434Z,26.00
2023-05-23T09:54:36.823Z,26.11
2023-05-23T09:58:40.066Z,26.25
2023-05-23T10:03:16.969Z,26.28
2023-05-23T10:07:22.023Z,26.34
2023-05-23T10:11:36.154Z,26.25
2023-05-23T10:15:40.584Z,26.15
2023-05-23T10:19:44.583Z,26.11
2023-05-23T10:23:47.821Z,26.21
2023-05-23T10:27:54.568Z,26.36
2023-05-23T10:31:57.820Z,26.51
2023-05-23T10:36:08.772Z,26.70
2023-05-23T10:40:37.482Z,26.67
2023-05-23T10:44:39.491Z,26.49
2023-05-23T10:48:44.113Z,26.47
2023-05-23T10:52:46.194Z,26.59
2023-05-23T10:57:02.931Z,26.80
2023-05-23T11:01:12.659Z,26.86
2023-05-23T11:05:20.442Z,26.61
2023-05-23T11:09:22.947Z,26.52
2023-05-23T11:13:25.295Z,26.84
2023-05-23T11:17:32.364Z,27.17
2023-05-23T11:21:35.238Z,27.37
2023-05-23T11:25:44.004Z,27.50
2023-05-23T11:30:20.339Z,27.65
2023-05-23T11:34:26.100Z,27.81
2023-05-23T11:38:28.877Z,27.64
2023-05-23T11:42:31.004Z,27.36
2023-05-23T11:46:33.575Z,27.17
2023-05-23T11:50:50.287Z,26.96
2023-05-23T11:54:54.817Z,26.62
2023-05-23T11:58:57.696Z,26.42
2023-05-23T12:03:07.018Z,26.59
2023-05-23T12:07:09.576Z,27.01
2023-05-23T12:11:13.053Z,27.36
2023-05-23T12:15:15.542Z,27.53
2023-05-23T12:19:17.874Z,27.68
2023-05-23T12:23:29.719Z,27.79
2023-05-23T12:27:35.237Z,27.84
2023-05-23T12:31:37.388Z,27.68
2023-05-23T12:35:45.686Z,27.26
2023-05-23T12:39:47.693Z,26.86
2023-05-23T12:43:54.090Z,26.68
2023-05-23T12:47:56.262Z,26.53
2023-05-23T12:51:58.542Z,26.45
2023-05-23T12:56:00.769Z,26.60
2023-05-23T13:00:04.114Z,26.69
2023-05-23T13:04:06.274Z,26.90
2023-05-23T13:08:08.384Z,27.09
2023-05-23T13:12:11.928Z,27.17
2023-05-23T13:16:14.392Z,27.21
2023-05-23T13:20:16.543Z,27.28
2023-05-23T13:24:18.642Z,27.45
2023-05-23T13:28:20.796Z,27.53
2023-05-23T13:32:23.074Z,27.53
2023-05-23T13:36:25.538Z,27.61
2023-05-23T13:40:27.614Z,27.68
2023-05-23T13:44:29.776Z,27.56
2023-05-23T13:48:32.000Z,27.56
2023-05-23T13:52:34.201Z,27.72
2023-05-23T13:56:39.251Z,27.68
2023-05-23T14:00:41.491Z,27.52
2023-05-23T14:04:43.830Z,27.41
2023-05-23T14:08:45.961Z,27.35
2023-05-23T14:12:47.918Z,27.43
2023-05-23T14:16:51.216Z,27.51
2023-05-23T14:20:53.328Z,27.47
2023-05-23T14:24:55.428Z,27.48
2023-05-23T14:28:57.520Z,27.54
2023-05-23T14:32:59.646Z,27.65
2023-05-23T14:37:01.833Z,27.67
2023-05-23T14:41:04.085Z,27.63
2023-05-23T14:45:07.119Z,27.61
2023-05-23T14:49:09.116Z,27.43
2023-05-23T14:53:11.122Z,26.95
2023-05-23T14:57:13.180Z,26.65
2023-05-23T15:01:16.025Z,26.53
2023-05-23T15:05:18.484Z,26.54
2023-05-23T15:09:20.716Z,26.56
2023-05-23T15:13:23.769Z,26.49
2023-05-23T15:17:26.717Z,26.55
2023-05-23T15:21:29.488Z,26.58
2023-05-23T15:25:47.883Z,26.62
2023-05-23T15:29:51.281Z,26.59
2023-05-23T15:33:53.408Z,26.57
2023-05-23T15:37:55.497Z,26.67
2023-05-23T15:41:57.465Z,26.84
2023-05-23T15:46:00.058Z,26.99
2023-05-23T15:50:02.179Z,27.08
2023-05-23T15:54:04.468Z,26.98
2023-05-23T15:58:06.554Z,26.84
2023-05-23T16:02:09.642Z,26.68
2023-05-23T16:06:11.863Z,26.58
2023-05-23T16:10:14.010Z,26.40
2023-05-23T16:14:16.139Z,26.20
2023-05-23T16:18:18.287Z,25.99
2023-05-23T16:22:20.773Z,25.84
2023-05-23T16:26:22.904Z,25.70
2023-05-23T16:30:27.353Z,25.56
2023-05-23T16:34:29.496Z,25.45
2023-05-23T16:38:31.900Z,25.35
2023-05-23T16:42:33.914Z,25.29
2023-05-23T16:46:35.975Z,25.26
2023-05-23T16:50:38.131Z,25.26
2023-05-23T16:54:40.361Z,25.25
2023-05-23T16:58:42.356Z,25.26
2023-05-23T17:02:44.464Z,25.28
2023-05-23T17:06:46.722Z,25.28
2023-05-23T17:23:01.942Z,24.78
2023-05-23T17:27:04.847Z,24.49
2023-05-23T17:31:07.250Z,24.27
2023-05-23T17:35:09.550Z,24.04
2023-05-23T17:39:11.736Z,23.76
2023-05-23T17:43:13.959Z,23.52
2023-05-23T17:47:17.766Z,23.26
2023-05-23T17:51:20.405Z,23.07
2023-05-23T17:55:26.700Z,22.88
2023-05-23T17:59:28.890Z,22.70
2023-05-23T18:03:30.982Z,22.51
2023-05-23T18:07:33.000Z,22.28
2023-05-23T18:11:35.040Z,22.00
2023-05-23T18:15:37.106Z,21.74
2023-05-23T18:19:39.285Z,21.50
2023-05-23T18:23:41.614Z,21.15
2023-05-23T18:27:43.642Z,20.87
2023-05-23T18:31:46.677Z,20.68
2023-05-23T18:35:49.688Z,20.48
2023-05-23T18:39:51.691Z,20.28
2023-05-23T18:43:53.808Z,20.10
2023-05-23T18:47:56.347Z,19.93
2023-05-23T18:51:59.038Z,19.76
2023-05-23T18:56:01.085Z,19.57
2023-05-23T19:00:04.707Z,19.27
2023-05-23T19:04:07.150Z,18.99
2023-05-23T19:08:09.263Z,18.78
2023-05-23T19:12:11.495Z,18.66
2023-05-23T19:16:13.636Z,18.48
2023-05-23T19:20:19.578Z,18.28
2023-05-23T19:24:21.661Z,18.05
2023-05-23T19:28:23.686Z,17.79
2023-05-23T19:32:25.869Z,17.52
2023-05-23T19:36:28.053Z,17.37
2023-05-23T19:40:30.282Z,17.26
2023-05-23T19:44:32.614Z,17.14
2023-05-23T19:48:34.670Z,17.04
2023-05-23T19:52:36.757Z,16.95
2023-05-23T19:56:40.610Z,16.92
2023-05-23T20:00:42.900Z,16.93
2023-05-23T20:04:45.287Z,16.92
2023-05-23T20:08:47.345Z,16.91
2023-05-23T20:12:49.399Z,16.87
2023-05-23T20:16:53.340Z,16.83
2023-05-23T20:20:55.516Z,16.82
2023-05-23T20:24:57.577Z,16.76
2023-05-23T20:28:59.680Z,16.64
2023-05-23T20:33:02.315Z,16.58
2023-05-23T20:37:04.964Z,16.53
2023-05-23T20:41:07.079Z,16.44
2023-05-23T20:45:09.525Z,16.34
2023-05-23T20:49:11.570Z,16.26
2023-05-23T20:53:13.609Z,16.16
2023-05-23T20:57:15.886Z,16.10
2023-05-23T21:01:18.006Z,16.06
2023-05-23T21:05:20.056Z,16.02
2023-05-23T21:09:22.150Z,15.94
2023-05-23T21:13:24.175Z,15.87
2023-05-23T21:17:26.332Z,15.81
2023-05-23T21:21:28.393Z,15.81
2023-05-23T21:25:30.420Z,15.77
2023-05-23T21:29:32.405Z,15.73
2023-05-23T21:33:34.505Z,15.69
2023-05-23T21:37:36.454Z,15.68
2023-05-23T21:41:38.419Z,15.68
2023-05-23T21:45:40.444Z,15.68
2023-05-23T21:49:42.559Z,15.69
2023-05-23T21:53:44.573Z,15.70
2023-05-23T21:57:46.586Z,15.70
2023-05-23T22:01:48.681Z,15.72
2023-05-23T22:05:50.715Z,15.75
2023-05-23T22:09:54.052Z,15.79
2023-05-23T22:13:56.050Z,15.84
2023-05-23T22:18:01.143Z,15.89
2023-05-23T22:22:03.339Z,15.92
2023-05-23T22:26:05.402Z,15.92
2023-05-23T22:30:08.010Z,15.93
2023-05-23T22:34:10.138Z,15.93
2023-05-23T22:38:12.178Z,15.93
2023-05-23T22:42:14.201Z,15.93
2023-05-23T22:46:16.181Z,15.94
2023-05-23T22:50:18.160Z,15.95
2023-05-23T22:54:20.214Z,15.97
2023-05-23T22:58:22.321Z,15.99
2023-05-23T23:02:24.349Z,16.02
2023-05-23T23:06:26.426Z,16.01
2023-05-23T23:10:28.472Z,16.01
2023-05-23T23:14:30.468Z,16.00
2023-05-23T23:18:32.566Z,16.00
2023-05-23T23:22:35.874Z,15.99
2023-05-23T23:26:37.877Z,15.98
2023-05-23T23:30:40.062Z,15.96
2023-05-23T23:34:42.069Z,15.94
2023-05-23T23:38:44.069Z,15.91
2023-05-23T23:42:46.063Z,15.89
2023-05-23T23:46:48.184Z,15.87
2023-05-23T23:50:50.342Z,15.84
2023-05-23T23:54:52.320Z,15.80
2023-05-23T23:58:54.882Z,15.74
